Time;durP1;ratioP1;P1;durP2;ratioP2;P2;SDS_P1;SDS_P2;PMS_P1;PMS_P2;Temp;Humidity;BMP_temperature;BMP_pressure;BME280_temperature;BME280_humidity;BME280_pressure;Samples;Min_cycle;Max_cycle;Signal;HPM_P1;HPM_P2
2021/07/18 00:01:33;;;;;;;10.27;4.45;;;;;;;21.93;61.10;101747.88;6152222;23;20303;-82
2021/07/18 00:03:58;;;;;;;8.95;3.90;;;;;;;21.99;61.08;101752.59;6152535;23;20025;-82
2021/07/18 00:06:24;;;;;;;10.63;4.80;;;;;;;21.94;61.12;101738.59;6150556;23;20112;-82
2021/07/18 00:08:49;;;;;;;7.90;3.67;;;;;;;21.93;61.25;101739.66;6152160;23;20009;-82
2021/07/18 00:11:14;;;;;;;10.52;4.40;;;;;;;21.87;61.30;101736.81;6150001;23;20013;-82
2021/07/18 00:13:40;;;;;;;10.35;4.75;;;;;;;21.75;62.15;101739.16;6152457;23;20025;-82
2021/07/18 00:16:05;;;;;;;12.32;4.40;;;;;;;21.90;61.53;101737.28;6152435;23;20009;-81
2021/07/18 00:18:30;;;;;;;11.02;4.10;;;;;;;21.98;61.02;101737.22;6152133;23;20005;-81
2021/07/18 00:20:56;;;;;;;12.35;3.55;;;;;;;22.09;60.74;101735.03;6152785;23;20054;-81
2021/07/18 00:23:22;;;;;;;9.82;4.40;;;;;;;22.14;60.67;101727.13;6152513;23;20041;-82
2021/07/18 00:25:47;;;;;;;9.18;4.03;;;;;;;22.12;60.63;101726.47;6150355;23;20009;-82
2021/07/18 00:28:13;;;;;;;8.68;3.90;;;;;;;22.12;60.42;101720.97;6152350;23;20013;-82
2021/07/18 00:30:38;;;;;;;7.32;3.92;;;;;;;21.93;61.08;101738.81;6152633;23;20039;-81
2021/07/18 00:33:06;;;;;;;9.10;4.05;;;;;;;22.00;61.00;101723.31;6152063;23;20393;-82
2021/07/18 00:35:31;;;;;;;8.63;4.53;;;;;;;21.68;62.09;101719.88;6152350;23;20013;-81
2021/07/18 00:37:57;;;;;;;9.10;4.65;;;;;;;21.66;62.41;101721.09;6151991;23;20009;-82
2021/07/18 00:40:23;;;;;;;10.27;7.03;;;;;;;21.39;63.32;101726.09;6152331;23;20021;-82
2021/07/18 00:42:48;;;;;;;11.98;5.60;;;;;;;21.46;63.25;101718.88;6152645;23;20006;-82
2021/07/18 00:45:14;;;;;;;14.00;8.52;;;;;;;21.62;62.32;101715.13;6152120;23;20005;-81
2021/07/18 00:47:41;;;;;;;9.60;7.68;;;;;;;21.61;62.59;101715.31;6152106;23;20043;-82
2021/07/18 00:50:10;;;;;;;10.55;5.00;;;;;;;21.53;62.90;101718.97;6151862;23;20009;-82
2021/07/18 00:52:36;;;;;;;7.22;3.17;;;;;;;21.54;62.82;101720.69;6149690;23;20029;-81
2021/07/18 00:55:02;;;;;;;14.27;5.22;;;;;;;21.55;62.82;101716.94;6152338;23;20016;-81
2021/07/18 00:57:28;;;;;;;7.72;4.00;;;;;;;21.66;62.65;101713.72;6150920;23;20344;-81
2021/07/18 00:59:53;;;;;;;9.32;3.83;;;;;;;21.65;62.75;101716.66;6151928;23;20005;-81
2021/07/18 01:02:18;;;;;;;9.35;6.15;;;;;;;21.49;63.73;101717.66;6151845;23;20033;-82
2021/07/18 01:04:44;;;;;;;23.08;12.23;;;;;;;21.46;63.81;101726.25;6153695;23;20017;-81
2021/07/18 01:07:10;;;;;;;43.13;27.77;;;;;;;21.50;63.88;101714.72;6153813;23;20006;-82
2021/07/18 01:09:36;;;;;;;45.55;26.67;;;;;;;21.45;64.08;101721.78;6153387;23;20005;-82
2021/07/18 01:12:03;;;;;;;61.45;40.10;;;;;;;21.37;64.33;101714.50;6153654;23;20021;-81
2021/07/18 01:14:28;;;;;;;62.47;40.03;;;;;;;21.43;64.18;101715.66;6153515;23;20005;-81
2021/07/18 01:16:54;;;;;;;61.60;37.17;;;;;;;21.26;65.10;101725.81;6151731;23;20009;-81
2021/07/18 01:19:20;;;;;;;44.05;26.00;;;;;;;21.11;65.82;101723.03;6153342;23;20016;-81
2021/07/18 01:21:59;;;;;;;38.88;22.58;;;;;;;21.30;65.00;101722.56;6151553;23;20032;-81
2021/07/18 01:24:26;;;;;;;32.78;18.65;;;;;;;21.21;65.51;101726.38;6153221;23;20044;-81
2021/07/18 01:26:52;;;;;;;23.60;11.93;;;;;;;20.90;67.07;101726.38;6151521;23;20013;-81
2021/07/18 01:29:18;;;;;;;25.38;14.52;;;;;;;21.02;66.47;101727.69;6153424;23;20025;-81
2021/07/18 01:31:44;;;;;;;20.40;10.10;;;;;;;20.87;67.35;101722.13;6153802;23;20001;-82
2021/07/18 01:34:09;;;;;;;22.83;11.93;;;;;;;21.08;66.20;101717.91;6153316;23;20012;-81
2021/07/18 01:36:35;;;;;;;18.95;9.55;;;;;;;21.17;65.98;101722.28;6153302;23;20043;-81
2021/07/18 01:39:04;;;;;;;19.38;8.27;;;;;;;20.95;66.84;101723.13;6151418;23;20036;-82
2021/07/18 01:41:29;;;;;;;16.08;7.90;;;;;;;20.95;66.79;101718.50;6151532;23;20005;-82
2021/07/18 01:43:55;;;;;;;12.68;7.93;;;;;;;21.04;66.39;101717.44;6153387;23;20096;-82
2021/07/18 01:46:21;;;;;;;15.27;7.75;;;;;;;20.95;66.94;101721.25;6151387;23;20426;-81
2021/07/18 01:48:51;;;;;;;13.80;7.53;;;;;;;20.96;66.80;101719.34;6153315;23;20028;-82
2021/07/18 01:51:21;;;;;;;20.60;8.52;;;;;;;20.91;67.00;101719.03;6151371;23;20053;-81
2021/07/18 01:53:48;;;;;;;13.45;7.00;;;;;;;20.93;66.63;101723.31;6153305;23;20009;-81
2021/07/18 01:56:14;;;;;;;17.58;7.85;;;;;;;21.01;66.39;101719.69;6152125;23;20446;-81
2021/07/18 01:58:39;;;;;;;20.20;9.55;;;;;;;20.64;68.04;101719.34;6153022;23;20150;-82
2021/07/18 02:01:04;;;;;;;14.93;7.25;;;;;;;20.92;66.85;101715.28;6153369;23;20028;-81
2021/07/18 02:03:30;;;;;;;18.23;7.63;;;;;;;20.82;67.23;101719.09;6153454;23;20009;-81
2021/07/18 02:05:55;;;;;;;21.20;8.63;;;;;;;20.73;67.69;101722.91;6151120;23;20017;-81
2021/07/18 02:08:20;;;;;;;22.15;9.80;;;;;;;20.59;68.47;101712.72;6153189;23;20009;-82
2021/07/18 02:10:46;;;;;;;23.80;10.32;;;;;;;20.70;67.99;101722.41;6152879;23;20450;-81
2021/07/18 02:13:16;;;;;;;21.67;12.43;;;;;;;20.73;67.86;101722.91;6153406;23;20016;-82
2021/07/18 02:15:41;;;;;;;47.15;19.13;;;;;;;20.63;68.03;101728.59;6153343;23;20016;-81
2021/07/18 02:18:07;;;;;;;55.45;22.67;;;;;;;20.58;68.44;101721.97;6153307;23;20013;-81
2021/07/18 02:20:33;;;;;;;75.82;31.83;;;;;;;20.44;68.85;101726.25;6153426;23;20040;-82
2021/07/18 02:22:58;;;;;;;90.97;41.83;;;;;;;20.64;68.12;101721.25;6152989;23;20017;-82
2021/07/18 02:25:29;;;;;;;92.97;44.72;;;;;;;20.73;67.79;101722.06;6151598;23;19997;-82
2021/07/18 02:27:55;;;;;;;82.63;43.80;;;;;;;20.53;68.67;101719.75;6152963;23;20005;-81
2021/07/18 02:30:22;;;;;;;83.30;39.70;;;;;;;20.75;67.67;101709.03;6153844;23;20020;-82
2021/07/18 02:32:49;;;;;;;59.92;33.38;;;;;;;20.78;67.50;101703.22;6153047;23;20108;-82
2021/07/18 02:35:16;;;;;;;43.80;21.45;;;;;;;20.81;67.39;101709.19;6150743;23;20017;-81
2021/07/18 02:37:43;;;;;;;45.30;28.13;;;;;;;20.72;67.90;101704.78;6150827;23;20534;-82
2021/07/18 02:40:09;;;;;;;31.02;17.20;;;;;;;20.61;68.53;101705.22;6152857;23;20446;-81
2021/07/18 02:42:36;;;;;;;30.15;14.13;;;;;;;20.74;68.06;101705.47;6150886;23;20342;-81
2021/07/18 02:45:02;;;;;;;26.13;11.73;;;;;;;20.80;67.57;101707.47;6153129;23;20005;-81
2021/07/18 02:47:27;;;;;;;27.08;11.38;;;;;;;20.79;67.69;101704.94;6153558;23;20009;-82
2021/07/18 02:49:52;;;;;;;17.38;9.02;;;;;;;20.87;67.63;101707.63;6152905;23;20333;-82
2021/07/18 02:52:18;;;;;;;19.90;8.70;;;;;;;20.84;67.64;101697.03;6153140;23;20060;-82
2021/07/18 02:54:44;;;;;;;12.88;6.53;;;;;;;20.99;66.96;101695.22;6152595;23;20084;-81
2021/07/18 02:57:09;;;;;;;14.98;6.80;;;;;;;20.73;68.13;101695.56;6150750;23;20012;-82
2021/07/18 02:59:34;;;;;;;15.90;5.93;;;;;;;20.93;67.05;101686.91;6152473;23;20005;-82
2021/07/18 03:02:02;;;;;;;20.92;7.55;;;;;;;20.88;67.32;101688.31;6152524;23;20010;-81
2021/07/18 03:04:27;;;;;;;18.50;5.28;;;;;;;20.75;68.09;101698.09;6152320;23;20001;-81
2021/07/18 03:06:53;;;;;;;15.88;6.00;;;;;;;20.67;68.39;101693.56;6153121;23;20016;-82
2021/07/18 03:09:22;;;;;;;16.00;5.57;;;;;;;20.65;68.23;101695.59;6152440;23;20030;-81
2021/07/18 03:11:48;;;;;;;12.63;5.50;;;;;;;20.73;67.97;101694.72;6150465;23;20005;-82
2021/07/18 03:14:13;;;;;;;15.77;5.18;;;;;;;20.83;67.42;101696.19;6150582;23;20378;-81
2021/07/18 03:16:39;;;;;;;18.08;5.68;;;;;;;20.95;66.89;101688.44;6150778;23;20013;-82
2021/07/18 03:19:04;;;;;;;24.40;6.32;;;;;;;20.75;67.65;101692.66;6152117;23;20442;-82
2021/07/18 03:21:34;;;;;;;12.60;6.15;;;;;;;20.46;69.12;101694.13;6150289;23;20009;-81
2021/07/18 03:24:00;;;;;;;14.70;5.15;;;;;;;20.70;67.81;101689.63;6152873;23;20098;-82
2021/07/18 03:26:25;;;;;;;17.45;5.00;;;;;;;20.81;67.11;101687.31;6152538;23;20052;-81
2021/07/18 03:28:51;;;;;;;20.58;6.05;;;;;;;20.65;68.17;101693.72;6152361;23;20011;-82
2021/07/18 03:31:16;;;;;;;13.00;5.97;;;;;;;20.77;67.73;101691.44;6152748;23;20005;-81
2021/07/18 03:33:41;;;;;;;19.83;5.20;;;;;;;20.83;67.36;101690.72;6150233;23;20456;-82
2021/07/18 03:36:07;;;;;;;18.77;5.38;;;;;;;20.92;67.24;101693.41;6150319;23;20342;-82
2021/07/18 03:38:32;;;;;;;19.52;6.07;;;;;;;20.65;68.36;101704.66;6149999;23;20009;-81
2021/07/18 03:40:58;;;;;;;17.75;5.95;;;;;;;20.78;67.91;101686.81;6150691;23;20020;-82
2021/07/18 03:43:23;;;;;;;19.30;6.53;;;;;;;20.64;68.84;101691.19;6152359;23;20009;-81
2021/07/18 03:45:48;;;;;;;18.17;6.25;;;;;;;20.60;68.84;101695.28;6152386;23;20065;-81
2021/07/18 03:48:13;;;;;;;13.77;5.28;;;;;;;20.67;68.40;101689.97;6149988;23;20387;-81
2021/07/18 03:50:39;;;;;;;21.35;5.40;;;;;;;20.70;68.20;101690.47;6152563;23;20469;-82
2021/07/18 03:53:04;;;;;;;15.05;5.40;;;;;;;20.62;68.63;101696.81;6149919;23;20064;-82
2021/07/18 03:55:29;;;;;;;18.05;5.38;;;;;;;20.78;68.13;101695.88;6152020;23;20006;-82
2021/07/18 03:57:55;;;;;;;19.70;6.03;;;;;;;20.76;67.98;101697.09;6150079;23;20006;-81
2021/07/18 04:00:21;;;;;;;18.50;6.00;;;;;;;20.88;67.38;101693.78;6152154;23;20033;-82
2021/07/18 04:02:47;;;;;;;19.02;4.68;;;;;;;20.80;67.89;101695.69;6152292;23;20006;-82
2021/07/18 04:05:12;;;;;;;16.35;5.93;;;;;;;20.70;68.46;101706.03;6149984;23;20028;-81
2021/07/18 04:07:38;;;;;;;24.58;5.78;;;;;;;20.78;67.94;101698.59;6152240;23;20009;-81
2021/07/18 04:10:04;;;;;;;18.58;6.18;;;;;;;20.60;68.82;101704.34;6152180;23;20013;-82
2021/07/18 04:12:29;;;;;;;16.10;5.18;;;;;;;20.63;68.63;101703.13;6151903;23;20346;-81
2021/07/18 04:14:55;;;;;;;16.48;5.07;;;;;;;20.49;69.22;101710.16;6152752;23;20080;-81
2021/07/18 04:17:20;;;;;;;18.70;5.68;;;;;;;20.54;69.21;101707.81;6151844;23;20084;-81
2021/07/18 04:19:46;;;;;;;11.77;4.55;;;;;;;20.47;69.78;101711.38;6151996;23;20009;-81
2021/07/18 04:22:11;;;;;;;14.88;5.40;;;;;;;20.42;70.52;101711.91;6152070;23;20013;-81
2021/07/18 04:24:36;;;;;;;20.38;5.80;;;;;;;20.62;69.19;101718.69;6152146;23;20084;-81
2021/07/18 04:27:02;;;;;;;19.42;5.53;;;;;;;20.56;69.75;101707.59;6151931;23;20041;-81
2021/07/18 04:29:27;;;;;;;16.75;5.07;;;;;;;20.83;68.54;101712.59;6151860;23;20010;-81
2021/07/18 04:31:52;;;;;;;16.40;5.15;;;;;;;20.97;67.96;101708.25;6152507;23;20517;-81
2021/07/18 04:34:18;;;;;;;18.95;5.95;;;;;;;20.79;68.89;101702.22;6154547;23;20006;-82
2021/07/18 04:36:44;;;;;;;18.25;5.10;;;;;;;21.03;68.38;101701.22;6152480;23;20036;-81
2021/07/18 04:39:09;;;;;;;21.77;5.28;;;;;;;21.07;67.77;101703.38;6154131;23;20435;-81
2021/07/18 04:41:35;;;;;;;17.40;5.53;;;;;;;21.08;67.77;101694.13;6154877;23;20016;-81
2021/07/18 04:44:00;;;;;;;18.95;6.68;;;;;;;20.79;68.96;101689.38;6154222;23;20450;-82
2021/07/18 04:46:26;;;;;;;15.05;4.75;;;;;;;21.01;68.01;101684.97;6154381;23;20009;-81
2021/07/18 04:48:51;;;;;;;17.30;5.07;;;;;;;21.11;67.41;101682.84;6154259;23;20041;-82
2021/07/18 04:51:17;;;;;;;18.95;5.03;;;;;;;21.05;67.89;101693.66;6153885;23;20038;-81
2021/07/18 04:53:43;;;;;;;20.63;5.72;;;;;;;21.10;67.69;101692.09;6153740;23;20390;-81
2021/07/18 04:56:08;;;;;;;22.92;5.10;;;;;;;21.06;67.54;101687.19;6153157;23;20056;-81
2021/07/18 04:58:33;;;;;;;16.20;4.65;;;;;;;21.29;66.54;101696.22;6153510;23;20009;-81
2021/07/18 05:00:59;;;;;;;15.48;5.03;;;;;;;21.39;66.30;101695.16;6154400;23;20072;-81
2021/07/18 05:03:24;;;;;;;15.63;4.80;;;;;;;21.36;66.06;101696.34;6153962;23;20010;-82
2021/07/18 05:05:49;;;;;;;11.48;4.25;;;;;;;21.39;66.07;101701.47;6155633;23;20390;-82
2021/07/18 05:08:15;;;;;;;13.70;4.22;;;;;;;21.46;65.65;101701.59;6154072;23;20012;-81
2021/07/18 05:10:40;;;;;;;20.42;5.05;;;;;;;21.53;65.74;101695.19;6152032;23;20007;-82
2021/07/18 05:13:05;;;;;;;10.30;4.32;;;;;;;21.50;65.65;101691.97;6153697;23;20105;-81
2021/07/18 05:15:32;;;;;;;13.82;4.25;;;;;;;21.59;65.21;101692.75;6153619;23;20009;-82
2021/07/18 05:17:58;;;;;;;27.80;6.20;;;;;;;21.39;65.17;101690.53;6154482;23;20031;-82
2021/07/18 05:20:25;;;;;;;15.60;4.35;;;;;;;21.56;64.71;101683.88;6154307;23;20390;-81
2021/07/18 05:22:51;;;;;;;16.35;4.88;;;;;;;21.40;65.29;101685.91;6151850;23;20080;-81
2021/07/18 05:25:17;;;;;;;18.65;5.07;;;;;;;21.33;65.50;101683.88;6153854;23;20001;-81
2021/07/18 05:27:42;;;;;;;16.30;4.53;;;;;;;21.49;64.93;101690.28;6153730;23;20461;-81
2021/07/18 05:30:10;;;;;;;12.15;4.82;;;;;;;21.56;65.03;101686.63;6151582;23;20005;-81
2021/07/18 05:32:36;;;;;;;16.50;4.32;;;;;;;21.57;64.86;101696.50;6153646;23;20005;-82
2021/07/18 05:35:02;;;;;;;10.55;4.65;;;;;;;21.58;64.92;101689.19;6153536;23;20149;-82
2021/07/18 05:37:27;;;;;;;14.90;4.47;;;;;;;21.57;64.81;101688.31;6151785;23;20450;-81
2021/07/18 05:39:52;;;;;;;10.18;3.70;;;;;;;21.62;64.78;101686.91;6153750;23;20011;-82
2021/07/18 05:42:18;;;;;;;16.63;5.18;;;;;;;21.62;65.03;101687.75;6153501;23;20060;-82
2021/07/18 05:44:43;;;;;;;18.60;4.60;;;;;;;21.65;64.56;101695.59;6152619;23;20013;-81
2021/07/18 05:47:10;;;;;;;13.98;4.43;;;;;;;21.80;63.78;101693.75;6153858;23;20117;-81
2021/07/18 05:49:36;;;;;;;12.88;4.97;;;;;;;21.70;64.25;101695.91;6151519;23;20077;-82
2021/07/18 05:52:02;;;;;;;11.73;4.07;;;;;;;22.05;63.22;101695.38;6153549;23;20105;-82
2021/07/18 05:54:27;;;;;;;13.15;4.38;;;;;;;21.75;63.87;101701.66;6153017;23;20009;-82
2021/07/18 05:56:52;;;;;;;13.23;4.95;;;;;;;21.66;63.92;101696.44;6153616;23;20017;-81
2021/07/18 05:59:18;;;;;;;16.83;4.40;;;;;;;21.69;64.16;101698.81;6152890;23;20009;-81
2021/07/18 06:01:43;;;;;;;14.60;4.85;;;;;;;21.70;64.27;101692.28;6153539;23;20095;-82
2021/07/18 06:04:08;;;;;;;12.73;4.22;;;;;;;21.73;63.70;101697.41;6151228;23;20100;-81
2021/07/18 06:06:34;;;;;;;21.15;5.03;;;;;;;21.63;63.70;101696.81;6153610;23;20017;-81
2021/07/18 06:08:59;;;;;;;13.07;4.38;;;;;;;21.75;63.47;101706.28;6151502;23;20479;-82
2021/07/18 06:11:26;;;;;;;10.60;3.67;;;;;;;21.57;63.93;101690.19;6153692;23;20005;-82
2021/07/18 06:13:51;;;;;;;11.23;4.47;;;;;;;21.70;63.68;101695.03;6151558;23;20047;-81
2021/07/18 06:16:17;;;;;;;11.50;3.70;;;;;;;21.92;62.78;101693.28;6153313;23;20006;-81
2021/07/18 06:18:43;;;;;;;8.90;4.10;;;;;;;22.04;62.54;101697.28;6153414;23;20005;-82
2021/07/18 06:21:08;;;;;;;9.15;3.28;;;;;;;22.19;61.87;101694.53;6153563;23;20461;-82
2021/07/18 06:23:34;;;;;;;15.32;3.50;;;;;;;22.22;61.02;101692.31;6153377;23;20364;-82
2021/07/18 06:26:00;;;;;;;9.95;4.45;;;;;;;22.15;61.52;101695.94;6153183;23;20001;-82
2021/07/18 06:28:25;;;;;;;10.50;3.33;;;;;;;22.12;61.55;101699.06;6153669;23;20005;-82
2021/07/18 06:30:54;;;;;;;10.18;3.22;;;;;;;22.23;60.85;101693.16;6154121;23;20048;-82
2021/07/18 06:33:19;;;;;;;10.38;2.72;;;;;;;22.10;60.72;101701.13;6151447;23;20009;-82
2021/07/18 06:35:44;;;;;;;7.97;2.83;;;;;;;22.27;60.73;101688.13;6154289;23;20013;-82
2021/07/18 06:38:10;;;;;;;11.85;3.15;;;;;;;22.17;60.63;101689.28;6153480;23;20017;-82
2021/07/18 06:40:35;;;;;;;10.35;3.42;;;;;;;22.32;60.58;101697.50;6153938;23;20012;-82
2021/07/18 06:43:00;;;;;;;7.95;3.35;;;;;;;22.27;60.63;101697.19;6154774;23;20104;-82
2021/07/18 06:45:26;;;;;;;11.50;3.63;;;;;;;22.27;60.57;101691.72;6153445;23;20410;-82
2021/07/18 06:47:51;;;;;;;7.57;3.25;;;;;;;22.34;60.61;101689.06;6155585;23;20401;-82
2021/07/18 06:50:18;;;;;;;12.25;2.95;;;;;;;22.40;60.61;101691.88;6154155;23;20005;-82
2021/07/18 06:52:44;;;;;;;9.05;2.80;;;;;;;22.51;59.82;101696.06;6152173;23;20012;-82
2021/07/18 06:55:10;;;;;;;10.13;2.78;;;;;;;22.58;59.82;101686.00;6153016;23;20010;-81
2021/07/18 06:57:35;;;;;;;6.57;2.35;;;;;;;22.34;59.78;101694.53;6154392;23;20334;-82
2021/07/18 07:00:00;;;;;;;8.65;2.42;;;;;;;22.23;59.32;101680.28;6150825;23;20116;-82
2021/07/18 07:02:26;;;;;;;8.18;2.45;;;;;;;22.37;59.28;101684.03;6152534;23;20005;-82
2021/07/18 07:04:51;;;;;;;8.43;2.75;;;;;;;22.39;59.24;101672.91;6150288;23;20462;-82
2021/07/18 07:07:16;;;;;;;4.50;2.17;;;;;;;22.55;58.66;101669.94;6154179;23;20011;-82
2021/07/18 07:09:42;;;;;;;7.25;2.55;;;;;;;22.16;57.74;101662.91;6152608;23;20020;-82
2021/07/18 07:12:08;;;;;;;9.55;2.40;;;;;;;22.24;58.60;101673.75;6152842;23;20013;-82
2021/07/18 07:14:33;;;;;;;8.52;2.70;;;;;;;22.05;59.25;101677.06;6152999;23;20073;-81
2021/07/18 07:16:58;;;;;;;9.30;2.80;;;;;;;21.89;60.47;101669.03;6150695;23;20058;-82
2021/07/18 07:19:24;;;;;;;7.32;2.60;;;;;;;21.98;60.30;101676.97;6152673;23;20478;-81
2021/07/18 07:21:49;;;;;;;8.80;2.40;;;;;;;22.10;59.02;101662.78;6152650;23;20009;-82
2021/07/18 07:24:15;;;;;;;4.35;2.10;;;;;;;22.15;58.23;101666.66;6150026;23;20020;-81
2021/07/18 07:26:40;;;;;;;6.68;2.15;;;;;;;22.16;58.76;101662.91;6150548;23;20009;-82
2021/07/18 07:29:06;;;;;;;5.80;2.15;;;;;;;22.21;59.09;101665.91;6150683;23;20005;-82
2021/07/18 07:31:31;;;;;;;3.97;1.98;;;;;;;22.33;59.48;101665.44;6153941;23;20063;-82
2021/07/18 07:33:57;;;;;;;4.90;2.22;;;;;;;22.45;58.36;101664.75;6153104;23;20013;-82
2021/07/18 07:36:22;;;;;;;8.38;2.63;;;;;;;22.44;58.65;101668.56;6152466;23;20009;-81
2021/07/18 07:38:48;;;;;;;6.90;1.88;;;;;;;22.42;57.61;101669.78;6152798;23;20088;-82
2021/07/18 07:41:14;;;;;;;6.72;2.50;;;;;;;22.64;57.15;101674.28;6151282;23;20001;-82
2021/07/18 07:43:39;;;;;;;5.65;2.22;;;;;;;22.39;56.36;101667.44;6152497;23;20148;-81
2021/07/18 07:46:05;;;;;;;3.85;2.10;;;;;;;22.61;56.02;101668.31;6152586;23;20064;-82
2021/07/18 07:48:30;;;;;;;6.03;2.22;;;;;;;22.71;56.20;101668.84;6152305;23;20013;-81
2021/07/18 07:50:57;;;;;;;3.00;1.90;;;;;;;22.84;55.83;101671.78;6150371;23;20013;-81
2021/07/18 07:53:24;;;;;;;5.82;2.08;;;;;;;23.00;55.24;101661.63;6152106;23;20013;-82
2021/07/18 07:55:49;;;;;;;7.07;2.10;;;;;;;22.93;55.40;101658.78;6152224;23;20017;-81
2021/07/18 07:58:14;;;;;;;5.20;2.20;;;;;;;22.93;54.63;101659.63;6152331;23;20005;-82
2021/07/18 08:00:40;;;;;;;4.72;1.80;;;;;;;22.99;54.68;101649.81;6152239;23;20001;-82
2021/07/18 08:03:05;;;;;;;7.13;2.13;;;;;;;23.02;54.13;101660.38;6152272;23;20043;-82
2021/07/18 08:05:31;;;;;;;12.40;3.40;;;;;;;23.14;53.87;101655.19;6151858;23;20024;-82
2021/07/18 08:07:56;;;;;;;6.97;1.70;;;;;;;23.16;53.10;101655.88;6151813;23;20006;-82
2021/07/18 08:10:23;;;;;;;7.63;2.80;;;;;;;23.19;53.04;101654.63;6152467;23;20470;-82
2021/07/18 08:12:48;;;;;;;6.57;1.90;;;;;;;23.17;53.15;101661.19;6152190;23;20059;-82
2021/07/18 08:15:16;;;;;;;3.33;1.75;;;;;;;23.08;53.71;101658.72;6152173;23;20009;-82
2021/07/18 08:17:42;;;;;;;8.68;2.03;;;;;;;23.32;53.32;101663.81;6152693;23;20080;-82
2021/07/18 08:20:13;;;;;;;8.27;3.22;;;;;;;23.17;53.79;101657.56;6150532;23;20009;-82
2021/07/18 08:22:38;;;;;;;3.58;1.80;;;;;;;23.24;53.87;101660.38;6152619;23;20040;-81
2021/07/18 08:25:06;;;;;;;3.72;2.00;;;;;;;23.12;54.31;101662.81;6152280;23;20009;-82
2021/07/18 08:27:32;;;;;;;10.95;2.15;;;;;;;23.09;53.84;101671.44;6150778;23;20442;-82
2021/07/18 08:29:57;;;;;;;6.68;1.75;;;;;;;23.22;52.97;101666.06;6152278;23;20009;-82
2021/07/18 08:32:22;;;;;;;4.88;1.77;;;;;;;23.10;52.98;101670.38;6150359;23;20062;-81
2021/07/18 08:34:48;;;;;;;2.55;1.60;;;;;;;23.11;52.72;101653.72;6152090;23;20013;-82
2021/07/18 08:37:13;;;;;;;3.88;1.85;;;;;;;23.37;52.80;101660.50;6152329;23;20036;-81
2021/07/18 08:39:38;;;;;;;10.70;2.00;;;;;;;23.51;52.38;101661.44;6152053;23;20010;-82
2021/07/18 08:42:05;;;;;;;3.03;2.00;;;;;;;23.50;51.58;101663.34;6152470;23;20084;-81
2021/07/18 08:44:31;;;;;;;5.32;1.83;;;;;;;23.57;51.94;101657.94;6150962;23;20427;-82
2021/07/18 08:46:57;;;;;;;7.10;2.13;;;;;;;23.54;51.55;101661.91;6152904;23;20012;-82
2021/07/18 08:49:22;;;;;;;3.67;1.77;;;;;;;23.55;51.59;101665.50;6152239;23;20016;-82
2021/07/18 08:51:47;;;;;;;6.50;2.17;;;;;;;23.36;51.46;101665.16;6152723;23;20040;-82
2021/07/18 08:54:16;;;;;;;3.88;1.83;;;;;;;23.77;51.75;101653.44;6154192;23;20326;-81
2021/07/18 08:56:42;;;;;;;5.35;1.98;;;;;;;23.74;50.70;101658.50;6153730;23;20064;-82
2021/07/18 08:59:10;;;;;;;4.32;2.13;;;;;;;23.72;50.27;101660.59;6153731;23;20071;-82
2021/07/18 09:01:41;;;;;;;5.10;1.75;;;;;;;23.96;50.57;101665.59;6154165;23;20529;-82
2021/07/18 09:04:07;;;;;;;3.13;1.95;;;;;;;24.05;50.97;101661.66;6152167;23;20521;-82
2021/07/18 09:06:44;;;;;;;5.50;1.85;;;;;;;24.37;50.24;101672.19;6151787;23;20096;-81
2021/07/18 09:09:15;;;;;;;4.75;1.92;;;;;;;24.52;49.94;101673.78;6150550;23;20017;-82
2021/07/18 09:11:41;;;;;;;5.80;2.13;;;;;;;24.27;49.43;101675.28;6152525;23;20330;-81
2021/07/18 09:14:08;;;;;;;4.90;1.77;;;;;;;24.13;49.71;101668.91;6152974;23;20032;-82
2021/07/18 09:16:36;;;;;;;4.45;2.38;;;;;;;24.27;49.77;101667.03;6150670;23;20343;-82
2021/07/18 09:19:15;;;;;;;6.82;1.65;;;;;;;24.36;49.36;101662.22;6153239;23;20092;-82
2021/07/18 09:22:17;;;;;;;6.28;1.80;;;;;;;24.36;48.88;101662.22;6152293;23;20005;-82
2021/07/18 09:24:51;;;;;;;7.53;2.70;;;;;;;24.47;49.07;101662.53;6155094;23;20016;-82
2021/07/18 09:27:24;;;;;;;5.53;1.65;;;;;;;24.54;49.44;101668.06;6152151;23;20033;-82
2021/07/18 09:29:56;;;;;;;21.85;3.05;;;;;;;24.49;49.57;101673.34;6154865;23;20080;-82
2021/07/18 09:32:27;;;;;;;8.48;2.13;;;;;;;24.68;49.22;101674.47;6154296;23;20006;-82
2021/07/18 09:35:02;;;;;;;10.05;2.17;;;;;;;24.69;49.52;101687.16;6154759;23;20009;-82
2021/07/18 09:37:40;;;;;;;8.88;2.22;;;;;;;23.91;50.17;101681.03;6153200;23;20435;-82
2021/07/18 09:40:09;;;;;;;3.95;1.70;;;;;;;24.29;49.46;101682.28;6158310;23;20137;-82
2021/07/18 09:42:44;;;;;;;4.07;1.63;;;;;;;24.10;49.61;101691.28;6155995;23;20009;-82
2021/07/18 09:45:12;;;;;;;5.70;2.30;;;;;;;24.39;49.21;101681.06;6154265;23;20001;-82
2021/07/18 09:47:54;;;;;;;4.95;2.25;;;;;;;24.08;49.12;101677.72;6154555;23;20005;-82
2021/07/18 09:50:31;;;;;;;5.97;2.15;;;;;;;24.47;49.27;101687.28;6153974;23;20010;-82
2021/07/18 09:53:12;;;;;;;8.48;2.25;;;;;;;24.47;48.95;101680.94;6154363;23;20012;-82
2021/07/18 09:55:39;;;;;;;5.60;1.77;;;;;;;24.68;48.43;101691.81;6152021;23;20014;-83
2021/07/18 09:58:05;;;;;;;7.70;2.17;;;;;;;24.48;48.81;101688.97;6153277;23;20005;-83
2021/07/18 10:00:42;;;;;;;6.63;2.15;;;;;;;24.23;49.09;101685.84;6153217;23;20485;-82
2021/07/18 10:03:22;;;;;;;4.80;2.22;;;;;;;24.42;49.01;101686.19;6154017;23;20009;-83
2021/07/18 10:06:15;;;;;;;5.97;2.33;;;;;;;24.58;48.73;101694.09;6151519;23;20013;-82
2021/07/18 10:08:44;;;;;;;8.55;2.38;;;;;;;24.73;49.34;101682.94;6146484;23;20020;-82
2021/07/18 10:11:12;;;;;;;10.88;4.15;;;;;;;24.71;48.93;101685.91;6150782;23;20009;-82
2021/07/18 10:13:39;;;;;;;8.82;2.50;;;;;;;24.75;48.96;101694.59;6151165;23;20749;-82
2021/07/18 10:16:05;;;;;;;10.82;2.88;;;;;;;24.60;49.17;101715.91;6154124;23;20063;-82
2021/07/18 10:18:31;;;;;;;8.07;2.88;;;;;;;24.03;48.06;101677.50;6155181;23;20005;-82
2021/07/18 10:20:58;;;;;;;14.48;4.03;;;;;;;23.88;48.43;101689.66;6150892;23;20020;-83
2021/07/18 10:23:25;;;;;;;9.63;3.35;;;;;;;23.98;48.14;101695.66;6153095;23;20006;-83
2021/07/18 10:25:52;;;;;;;8.10;2.83;;;;;;;24.04;47.51;101684.69;6153404;23;20005;-83
2021/07/18 10:28:18;;;;;;;11.88;3.95;;;;;;;23.91;48.01;101675.53;6154567;23;20035;-82
2021/07/18 10:30:48;;;;;;;6.80;3.03;;;;;;;24.06;47.47;101677.09;6152913;23;20009;-82
2021/07/18 10:33:18;;;;;;;11.10;2.97;;;;;;;23.71;47.07;101676.22;6150563;23;20005;-82
2021/07/18 10:35:46;;;;;;;7.60;3.45;;;;;;;23.94;47.44;101669.63;6154364;23;20028;-81
2021/07/18 10:38:19;;;;;;;9.93;3.30;;;;;;;24.28;47.14;101672.34;6152530;23;20021;-82
2021/07/18 10:40:53;;;;;;;10.65;3.88;;;;;;;24.44;46.26;101673.09;6150722;23;20009;-82
2021/07/18 10:43:37;;;;;;;10.55;4.07;;;;;;;24.30;45.74;101659.28;6152538;23;20006;-82
2021/07/18 10:46:08;;;;;;;13.02;4.75;;;;;;;24.07;46.35;101662.31;6152677;23;20017;-82
2021/07/18 10:48:43;;;;;;;6.97;3.35;;;;;;;24.26;46.00;101665.38;6152411;23;20006;-81
2021/07/18 10:51:09;;;;;;;13.43;4.10;;;;;;;23.91;45.95;101675.53;6152066;23;20391;-81
2021/07/18 10:53:35;;;;;;;11.80;4.53;;;;;;;24.18;46.77;101666.41;6152047;23;20009;-81
2021/07/18 10:56:02;;;;;;;7.88;4.05;;;;;;;24.42;46.80;101669.69;6152218;23;20452;-82
2021/07/18 10:58:39;;;;;;;10.85;3.70;;;;;;;24.41;45.51;101670.72;6152110;23;20009;-82
2021/07/18 11:01:11;;;;;;;8.68;4.22;;;;;;;24.49;45.84;101662.34;6152271;23;20040;-82
2021/07/18 11:03:45;;;;;;;15.20;4.05;;;;;;;24.53;44.90;101669.13;6149918;23;20036;-81
2021/07/18 11:06:30;;;;;;;8.75;3.65;;;;;;;24.83;45.12;101663.31;6150075;23;20100;-82
2021/07/18 11:09:08;;;;;;;12.95;4.07;;;;;;;24.65;45.15;101669.38;6151794;23;20009;-82
2021/07/18 11:11:52;;;;;;;16.17;3.65;;;;;;;24.70;44.81;101664.97;6149742;23;20346;-82
2021/07/18 11:14:34;;;;;;;15.68;4.80;;;;;;;25.09;44.54;101668.84;6151691;23;20005;-82
2021/07/18 11:17:03;;;;;;;11.88;4.53;;;;;;;25.26;44.70;101662.97;6151899;23;20315;-81
2021/07/18 11:19:35;;;;;;;13.23;4.45;;;;;;;24.98;44.17;101664.81;6151784;23;20009;-82